Nichioh Maru — JD3267 — position and weather

sailwx.info

Track history (hours):
 
Tides and Currents Weather Stations Pressure Air Temp Water Temp Dewpoint Dewpoint Depression Visibility Wind Speed Wind Dir Waves Ship Positions

Nichioh Maru

Last reported at 2016-Aug-27 10:33 UTC. Time now 2016-Aug-27 11:40 UTC.
Position N 35°30' E 139°46'.

Length 170 m; draft 6.5 m.

Type: Cargo ship. MMSI: 431003232.

Date/timePositionNaut miles runAvg speedWind from/ knotsBaromVisibWave heightAir tempDewpointWater temp
2016-Aug-27 10:33N 35°30' E 139°46'0 0.0
2016-Aug-27 09:33N 35°30' E 139°46'0 0.0
2016-Aug-27 08:33N 35°30' E 139°46'0 0.0
2016-Aug-27 07:33N 35°30' E 139°46'0 0.0
2016-Aug-27 06:33N 35°30' E 139°46'0 0.2
2016-Aug-27 04:33N 35°30' E 139°45'7 6.5
2016-Aug-27 03:33N 35°24' E 139°46'8 7.6
2016-Aug-27 02:33N 35°19' E 139°39'0 0.0
2016-Aug-27 01:30N 35°19' E 139°39'0 0.0
2016-Aug-27 00:33N 35°19' E 139°39'0 0.0
2016-Aug-26 23:33N 35°19' E 139°39'0 0.0
2016-Aug-26 22:33N 35°19' E 139°39'2 1.9
2016-Aug-26 21:31N 35°19' E 139°41'0 0.2
2016-Aug-26 20:34N 35°19' E 139°41'10 9.5
2016-Aug-26 19:34N 35°11' E 139°47'1514.5
2016-Aug-26 18:33N 34°58' E 139°37'7 7.2
2016-Aug-26 17:33N 34°54' E 139°30'5215.0
2016-Aug-26 14:06N 34°30' E 138°34'180 5.7
2016-Aug-25 06:26N 33°55' E 135°00'2713.9
2016-Aug-25 04:32N 34°22' E 135°01'1414.6
2016-Aug-25 03:33N 34°32' E 135°13'9 8.8
2016-Aug-25 02:34N 34°41' E 135°13'0 0.0
2016-Aug-25 01:33N 34°41' E 135°13'0 0.0
2016-Aug-25 00:33N 34°41' E 135°13'0 0.0
2016-Aug-24 23:33N 34°41' E 135°13'2 1.9
2016-Aug-24 22:33N 34°40' E 135°15'4 3.4
2016-Aug-24 21:24N 34°37' E 135°19'0 0.0
2016-Aug-24 20:30N 34°37' E 135°19'0 0.0
2016-Aug-24 19:30N 34°37' E 135°19'0 0.0
2016-Aug-24 18:30N 34°37' E 135°19'0 0.0
2016-Aug-24 17:18N 34°37' E 135°19'0 0.0
2016-Aug-24 16:30N 34°37' E 135°19'0 0.0
2016-Aug-24 15:30N 34°37' E 135°19'0 0.0
2016-Aug-24 14:30N 34°37' E 135°19'0 0.0
2016-Aug-24 13:18N 34°37' E 135°19'4 5.8
2016-Aug-24 12:33N 34°36' E 135°14'1615.3
2016-Aug-24 11:32N 34°35' E 134°55'  
Track history (hours):
 
Tides and Currents Weather Stations Pressure Air Temp Water Temp Dewpoint Dewpoint Depression Visibility Wind Speed Wind Dir Waves Ship Positions

Nichioh Maru

Last reported at 2016-Aug-27 10:33 UTC. Time now 2016-Aug-27 11:40 UTC.
Position N 35°30' E 139°46'.

Length 170 m; draft 6.5 m.

Type: Cargo ship. MMSI: 431003232.

Date/timePositionNaut miles runAvg speedWind from/ knotsBaromVisibWave heightAir tempDewpointWater temp
2016-Aug-27 10:33N 35°30' E 139°46'0 0.0
2016-Aug-27 09:33N 35°30' E 139°46'0 0.0
2016-Aug-27 08:33N 35°30' E 139°46'0 0.0
2016-Aug-27 07:33N 35°30' E 139°46'0 0.0
2016-Aug-27 06:33N 35°30' E 139°46'0 0.2
2016-Aug-27 04:33N 35°30' E 139°45'7 6.5
2016-Aug-27 03:33N 35°24' E 139°46'8 7.6
2016-Aug-27 02:33N 35°19' E 139°39'0 0.0
2016-Aug-27 01:30N 35°19' E 139°39'0 0.0
2016-Aug-27 00:33N 35°19' E 139°39'0 0.0
2016-Aug-26 23:33N 35°19' E 139°39'0 0.0
2016-Aug-26 22:33N 35°19' E 139°39'2 1.9
2016-Aug-26 21:31N 35°19' E 139°41'0 0.2
2016-Aug-26 20:34N 35°19' E 139°41'10 9.5
2016-Aug-26 19:34N 35°11' E 139°47'1514.5
2016-Aug-26 18:33N 34°58' E 139°37'7 7.2
2016-Aug-26 17:33N 34°54' E 139°30'5215.0
2016-Aug-26 14:06N 34°30' E 138°34'180 5.7
2016-Aug-25 06:26N 33°55' E 135°00'2713.9
2016-Aug-25 04:32N 34°22' E 135°01'1414.6
2016-Aug-25 03:33N 34°32' E 135°13'9 8.8
2016-Aug-25 02:34N 34°41' E 135°13'0 0.0
2016-Aug-25 01:33N 34°41' E 135°13'0 0.0
2016-Aug-25 00:33N 34°41' E 135°13'0 0.0
2016-Aug-24 23:33N 34°41' E 135°13'2 1.9
2016-Aug-24 22:33N 34°40' E 135°15'4 3.4
2016-Aug-24 21:24N 34°37' E 135°19'0 0.0
2016-Aug-24 20:30N 34°37' E 135°19'0 0.0
2016-Aug-24 19:30N 34°37' E 135°19'0 0.0
2016-Aug-24 18:30N 34°37' E 135°19'0 0.0
2016-Aug-24 17:18N 34°37' E 135°19'0 0.0
2016-Aug-24 16:30N 34°37' E 135°19'0 0.0
2016-Aug-24 15:30N 34°37' E 135°19'0 0.0
2016-Aug-24 14:30N 34°37' E 135°19'0 0.0
2016-Aug-24 13:18N 34°37' E 135°19'4 5.8
2016-Aug-24 12:33N 34°36' E 135°14'1615.3
2016-Aug-24 11:32N 34°35' E 134°55'  

Dump ship's entire track history